sensor_id;sensor_type;location;lat;lon;timestamp;P1;durP1;ratioP1;P2;durP2;ratioP2
32295;SDS011;18781;51.550;5.418;2023-04-15T00:00:33;16.35;;;5.75;;
32295;SDS011;18781;51.550;5.418;2023-04-15T00:02:59;11.73;;;5.20;;
32295;SDS011;18781;51.550;5.418;2023-04-15T00:05:26;8.55;;;4.65;;
32295;SDS011;18781;51.550;5.418;2023-04-15T00:07:53;16.25;;;5.13;;
32295;SDS011;18781;51.550;5.418;2023-04-15T00:10:19;19.00;;;5.72;;
32295;SDS011;18781;51.550;5.418;2023-04-15T00:12:44;15.43;;;5.70;;
32295;SDS011;18781;51.550;5.418;2023-04-15T00:15:10;10.60;;;5.25;;
32295;SDS011;18781;51.550;5.418;2023-04-15T00:17:36;19.73;;;6.18;;
32295;SDS011;18781;51.550;5.418;2023-04-15T00:20:03;12.77;;;5.22;;
32295;SDS011;18781;51.550;5.418;2023-04-15T00:22:30;13.55;;;5.75;;
32295;SDS011;18781;51.550;5.418;2023-04-15T00:24:56;15.57;;;5.53;;
32295;SDS011;18781;51.550;5.418;2023-04-15T00:27:22;14.55;;;5.85;;
32295;SDS011;18781;51.550;5.418;2023-04-15T00:29:48;14.10;;;5.00;;
32295;SDS011;18781;51.550;5.418;2023-04-15T00:32:14;13.93;;;5.57;;
32295;SDS011;18781;51.550;5.418;2023-04-15T00:34:39;16.80;;;5.88;;
32295;SDS011;18781;51.550;5.418;2023-04-15T00:37:05;18.73;;;5.95;;
32295;SDS011;18781;51.550;5.418;2023-04-15T00:39:31;21.23;;;6.18;;
32295;SDS011;18781;51.550;5.418;2023-04-15T00:41:56;16.15;;;6.43;;
32295;SDS011;18781;51.550;5.418;2023-04-15T00:44:22;13.98;;;5.60;;
32295;SDS011;18781;51.550;5.418;2023-04-15T00:46:47;20.45;;;5.90;;
32295;SDS011;18781;51.550;5.418;2023-04-15T00:49:16;15.32;;;5.45;;
32295;SDS011;18781;51.550;5.418;2023-04-15T00:51:43;15.68;;;5.93;;
32295;SDS011;18781;51.550;5.418;2023-04-15T00:54:09;14.50;;;5.82;;
32295;SDS011;18781;51.550;5.418;2023-04-15T00:56:35;15.70;;;6.13;;
32295;SDS011;18781;51.550;5.418;2023-04-15T00:59:02;20.00;;;6.13;;
32295;SDS011;18781;51.550;5.418;2023-04-15T01:01:29;11.77;;;5.38;;
32295;SDS011;18781;51.550;5.418;2023-04-15T01:03:55;16.98;;;6.22;;
32295;SDS011;18781;51.550;5.418;2023-04-15T01:06:22;17.08;;;6.22;;
32295;SDS011;18781;51.550;5.418;2023-04-15T01:08:48;19.05;;;6.35;;
32295;SDS011;18781;51.550;5.418;2023-04-15T01:11:14;14.70;;;6.50;;
32295;SDS011;18781;51.550;5.418;2023-04-15T01:13:41;18.48;;;6.28;;
32295;SDS011;18781;51.550;5.418;2023-04-15T01:16:07;16.95;;;5.85;;
32295;SDS011;18781;51.550;5.418;2023-04-15T01:18:33;19.55;;;6.00;;
32295;SDS011;18781;51.550;5.418;2023-04-15T01:21:01;12.02;;;6.15;;
32295;SDS011;18781;51.550;5.418;2023-04-15T01:23:28;15.05;;;6.65;;
32295;SDS011;18781;51.550;5.418;2023-04-15T01:25:54;18.83;;;6.57;;
32295;SDS011;18781;51.550;5.418;2023-04-15T01:28:21;16.20;;;6.03;;
32295;SDS011;18781;51.550;5.418;2023-04-15T01:30:46;19.77;;;6.82;;
32295;SDS011;18781;51.550;5.418;2023-04-15T01:33:12;18.33;;;6.95;;
32295;SDS011;18781;51.550;5.418;2023-04-15T01:35:38;12.65;;;6.65;;
32295;SDS011;18781;51.550;5.418;2023-04-15T01:38:07;15.40;;;6.22;;
32295;SDS011;18781;51.550;5.418;2023-04-15T01:40:34;18.83;;;7.05;;
32295;SDS011;18781;51.550;5.418;2023-04-15T01:43:00;17.70;;;6.80;;
32295;SDS011;18781;51.550;5.418;2023-04-15T01:45:26;11.75;;;6.43;;
32295;SDS011;18781;51.550;5.418;2023-04-15T01:47:52;17.65;;;6.72;;
32295;SDS011;18781;51.550;5.418;2023-04-15T01:50:18;13.57;;;6.68;;
32295;SDS011;18781;51.550;5.418;2023-04-15T01:52:44;16.40;;;7.05;;
32295;SDS011;18781;51.550;5.418;2023-04-15T01:55:11;14.75;;;7.18;;
32295;SDS011;18781;51.550;5.418;2023-04-15T01:57:37;16.33;;;7.13;;
32295;SDS011;18781;51.550;5.418;2023-04-15T02:00:03;23.00;;;7.40;;
32295;SDS011;18781;51.550;5.418;2023-04-15T02:02:29;13.20;;;7.38;;
32295;SDS011;18781;51.550;5.418;2023-04-15T02:04:54;15.32;;;7.32;;
32295;SDS011;18781;51.550;5.418;2023-04-15T02:07:20;16.05;;;7.45;;
32295;SDS011;18781;51.550;5.418;2023-04-15T02:09:46;11.43;;;7.28;;
32295;SDS011;18781;51.550;5.418;2023-04-15T02:12:11;14.05;;;7.88;;
32295;SDS011;18781;51.550;5.418;2023-04-15T02:14:37;15.65;;;7.32;;
32295;SDS011;18781;51.550;5.418;2023-04-15T02:17:03;16.80;;;7.72;;
32295;SDS011;18781;51.550;5.418;2023-04-15T02:19:32;15.02;;;8.05;;
32295;SDS011;18781;51.550;5.418;2023-04-15T02:21:59;15.82;;;7.80;;
32295;SDS011;18781;51.550;5.418;2023-04-15T02:24:25;15.98;;;7.55;;
32295;SDS011;18781;51.550;5.418;2023-04-15T02:26:51;15.32;;;7.68;;
32295;SDS011;18781;51.550;5.418;2023-04-15T02:29:17;18.52;;;7.57;;
32295;SDS011;18781;51.550;5.418;2023-04-15T02:31:42;15.80;;;7.93;;
32295;SDS011;18781;51.550;5.418;2023-04-15T02:34:09;16.70;;;7.43;;
32295;SDS011;18781;51.550;5.418;2023-04-15T02:36:34;13.82;;;6.85;;
32295;SDS011;18781;51.550;5.418;2023-04-15T02:39:00;12.40;;;7.28;;
32295;SDS011;18781;51.550;5.418;2023-04-15T02:41:27;14.45;;;7.60;;
32295;SDS011;18781;51.550;5.418;2023-04-15T02:43:54;17.02;;;8.25;;
32295;SDS011;18781;51.550;5.418;2023-04-15T02:46:20;18.55;;;8.10;;
32295;SDS011;18781;51.550;5.418;2023-04-15T02:48:46;14.43;;;8.13;;
32295;SDS011;18781;51.550;5.418;2023-04-15T02:51:16;16.83;;;8.65;;
32295;SDS011;18781;51.550;5.418;2023-04-15T02:53:46;15.18;;;8.15;;
32295;SDS011;18781;51.550;5.418;2023-04-15T02:56:13;14.48;;;8.15;;
32295;SDS011;18781;51.550;5.418;2023-04-15T02:58:39;16.65;;;8.23;;
32295;SDS011;18781;51.550;5.418;2023-04-15T03:01:06;16.25;;;8.43;;
32295;SDS011;18781;51.550;5.418;2023-04-15T03:03:32;17.25;;;8.80;;
32295;SDS011;18781;51.550;5.418;2023-04-15T03:05:58;17.65;;;8.45;;
32295;SDS011;18781;51.550;5.418;2023-04-15T03:08:24;20.42;;;8.85;;
32295;SDS011;18781;51.550;5.418;2023-04-15T03:10:50;12.90;;;8.23;;
32295;SDS011;18781;51.550;5.418;2023-04-15T03:13:16;17.13;;;8.20;;
32295;SDS011;18781;51.550;5.418;2023-04-15T03:15:42;14.73;;;8.27;;
32295;SDS011;18781;51.550;5.418;2023-04-15T03:18:10;17.63;;;9.27;;
32295;SDS011;18781;51.550;5.418;2023-04-15T03:20:36;15.82;;;8.63;;
32295;SDS011;18781;51.550;5.418;2023-04-15T03:23:01;14.18;;;8.27;;
32295;SDS011;18781;51.550;5.418;2023-04-15T03:25:27;14.55;;;8.63;;
32295;SDS011;18781;51.550;5.418;2023-04-15T03:27:53;18.83;;;8.90;;
32295;SDS011;18781;51.550;5.418;2023-04-15T03:30:18;14.93;;;8.63;;
32295;SDS011;18781;51.550;5.418;2023-04-15T03:32:44;14.50;;;8.63;;
32295;SDS011;18781;51.550;5.418;2023-04-15T03:35:10;17.42;;;9.48;;
32295;SDS011;18781;51.550;5.418;2023-04-15T03:37:35;18.83;;;8.93;;
32295;SDS011;18781;51.550;5.418;2023-04-15T03:40:01;16.73;;;9.05;;
32295;SDS011;18781;51.550;5.418;2023-04-15T03:42:27;13.68;;;9.45;;
32295;SDS011;18781;51.550;5.418;2023-04-15T03:44:52;17.98;;;9.50;;
32295;SDS011;18781;51.550;5.418;2023-04-15T03:47:18;14.95;;;8.70;;
32295;SDS011;18781;51.550;5.418;2023-04-15T03:49:43;15.18;;;9.00;;
32295;SDS011;18781;51.550;5.418;2023-04-15T03:52:09;14.45;;;8.88;;
32295;SDS011;18781;51.550;5.418;2023-04-15T03:54:35;13.73;;;8.10;;
32295;SDS011;18781;51.550;5.418;2023-04-15T03:57:00;14.77;;;8.75;;
32295;SDS011;18781;51.550;5.418;2023-04-15T03:59:26;17.48;;;9.65;;
32295;SDS011;18781;51.550;5.418;2023-04-15T04:01:51;15.93;;;8.60;;
32295;SDS011;18781;51.550;5.418;2023-04-15T04:04:17;16.98;;;8.73;;
32295;SDS011;18781;51.550;5.418;2023-04-15T04:06:43;19.77;;;9.63;;
32295;SDS011;18781;51.550;5.418;2023-04-15T04:09:08;20.38;;;9.20;;
32295;SDS011;18781;51.550;5.418;2023-04-15T04:11:34;17.45;;;9.55;;
32295;SDS011;18781;51.550;5.418;2023-04-15T04:14:01;15.65;;;8.68;;
32295;SDS011;18781;51.550;5.418;2023-04-15T04:16:27;14.43;;;9.07;;
32295;SDS011;18781;51.550;5.418;2023-04-15T04:18:52;15.65;;;9.02;;
32295;SDS011;18781;51.550;5.418;2023-04-15T04:21:18;15.15;;;8.73;;
32295;SDS011;18781;51.550;5.418;2023-04-15T04:23:44;20.27;;;9.25;;
32295;SDS011;18781;51.550;5.418;2023-04-15T04:26:10;17.55;;;9.40;;
32295;SDS011;18781;51.550;5.418;2023-04-15T04:28:36;12.95;;;9.45;;
32295;SDS011;18781;51.550;5.418;2023-04-15T04:31:03;15.07;;;9.10;;
32295;SDS011;18781;51.550;5.418;2023-04-15T04:33:29;15.75;;;9.50;;
32295;SDS011;18781;51.550;5.418;2023-04-15T04:35:55;15.15;;;9.05;;
32295;SDS011;18781;51.550;5.418;2023-04-15T04:38:20;17.70;;;9.10;;
32295;SDS011;18781;51.550;5.418;2023-04-15T04:40:46;13.75;;;9.07;;
32295;SDS011;18781;51.550;5.418;2023-04-15T04:43:11;15.25;;;10.18;;
32295;SDS011;18781;51.550;5.418;2023-04-15T04:45:37;16.73;;;9.80;;
32295;SDS011;18781;51.550;5.418;2023-04-15T04:48:02;16.98;;;9.75;;
32295;SDS011;18781;51.550;5.418;2023-04-15T04:50:30;16.27;;;9.43;;
32295;SDS011;18781;51.550;5.418;2023-04-15T04:52:56;17.88;;;9.73;;
32295;SDS011;18781;51.550;5.418;2023-04-15T04:55:22;16.83;;;10.57;;
32295;SDS011;18781;51.550;5.418;2023-04-15T04:57:47;16.60;;;9.90;;
32295;SDS011;18781;51.550;5.418;2023-04-15T05:00:13;19.92;;;10.75;;
32295;SDS011;18781;51.550;5.418;2023-04-15T05:02:38;14.85;;;10.23;;
32295;SDS011;18781;51.550;5.418;2023-04-15T05:05:05;18.70;;;9.60;;
32295;SDS011;18781;51.550;5.418;2023-04-15T05:07:31;16.88;;;10.60;;
32295;SDS011;18781;51.550;5.418;2023-04-15T05:09:57;19.40;;;10.50;;
32295;SDS011;18781;51.550;5.418;2023-04-15T05:12:22;14.43;;;9.27;;
32295;SDS011;18781;51.550;5.418;2023-04-15T05:14:48;21.70;;;10.65;;
32295;SDS011;18781;51.550;5.418;2023-04-15T05:17:14;18.30;;;10.30;;
32295;SDS011;18781;51.550;5.418;2023-04-15T05:19:39;15.85;;;10.05;;
32295;SDS011;18781;51.550;5.418;2023-04-15T05:22:05;16.55;;;9.52;;
32295;SDS011;18781;51.550;5.418;2023-04-15T05:24:30;16.13;;;9.52;;
32295;SDS011;18781;51.550;5.418;2023-04-15T05:26:56;17.50;;;10.23;;
32295;SDS011;18781;51.550;5.418;2023-04-15T05:29:22;13.63;;;9.38;;
32295;SDS011;18781;51.550;5.418;2023-04-15T05:31:47;16.13;;;10.52;;
32295;SDS011;18781;51.550;5.418;2023-04-15T05:34:13;20.50;;;9.25;;
32295;SDS011;18781;51.550;5.418;2023-04-15T05:36:40;13.90;;;10.15;;
32295;SDS011;18781;51.550;5.418;2023-04-15T05:39:06;28.63;;;11.02;;
32295;SDS011;18781;51.550;5.418;2023-04-15T05:41:31;21.00;;;11.52;;
32295;SDS011;18781;51.550;5.418;2023-04-15T05:43:57;15.80;;;10.18;;
32295;SDS011;18781;51.550;5.418;2023-04-15T05:46:22;18.58;;;10.73;;
32295;SDS011;18781;51.550;5.418;2023-04-15T05:48:48;15.80;;;10.35;;
32295;SDS011;18781;51.550;5.418;2023-04-15T05:51:13;21.45;;;10.48;;
32295;SDS011;18781;51.550;5.418;2023-04-15T05:53:39;20.10;;;10.73;;
32295;SDS011;18781;51.550;5.418;2023-04-15T05:56:07;18.65;;;10.40;;
32295;SDS011;18781;51.550;5.418;2023-04-15T05:58:33;17.85;;;11.23;;
32295;SDS011;18781;51.550;5.418;2023-04-15T06:00:58;16.10;;;10.52;;
32295;SDS011;18781;51.550;5.418;2023-04-15T06:03:26;16.23;;;10.63;;
32295;SDS011;18781;51.550;5.418;2023-04-15T06:05:51;16.05;;;10.15;;
32295;SDS011;18781;51.550;5.418;2023-04-15T06:08:17;16.05;;;10.48;;
32295;SDS011;18781;51.550;5.418;2023-04-15T06:10:43;18.90;;;10.45;;
32295;SDS011;18781;51.550;5.418;2023-04-15T06:13:08;16.25;;;10.52;;
32295;SDS011;18781;51.550;5.418;2023-04-15T06:15:34;16.33;;;10.80;;
32295;SDS011;18781;51.550;5.418;2023-04-15T06:17:59;17.92;;;10.88;;
32295;SDS011;18781;51.550;5.418;2023-04-15T06:20:25;19.70;;;10.70;;
32295;SDS011;18781;51.550;5.418;2023-04-15T06:22:50;15.25;;;9.88;;
32295;SDS011;18781;51.550;5.418;2023-04-15T06:25:16;20.75;;;10.38;;
32295;SDS011;18781;51.550;5.418;2023-04-15T06:27:42;21.65;;;11.05;;
32295;SDS011;18781;51.550;5.418;2023-04-15T06:30:07;20.08;;;10.18;;
32295;SDS011;18781;51.550;5.418;2023-04-15T06:32:33;21.17;;;9.82;;
32295;SDS011;18781;51.550;5.418;2023-04-15T06:34:59;17.50;;;10.52;;
32295;SDS011;18781;51.550;5.418;2023-04-15T06:37:25;15.70;;;10.40;;
32295;SDS011;18781;51.550;5.418;2023-04-15T06:39:50;18.67;;;10.15;;
32295;SDS011;18781;51.550;5.418;2023-04-15T06:42:16;14.43;;;10.25;;
32295;SDS011;18781;51.550;5.418;2023-04-15T06:44:42;16.17;;;10.13;;
32295;SDS011;18781;51.550;5.418;2023-04-15T06:47:07;17.48;;;11.15;;
32295;SDS011;18781;51.550;5.418;2023-04-15T06:49:33;18.48;;;11.35;;
32295;SDS011;18781;51.550;5.418;2023-04-15T06:51:59;15.60;;;10.43;;
32295;SDS011;18781;51.550;5.418;2023-04-15T06:54:25;17.35;;;11.20;;
32295;SDS011;18781;51.550;5.418;2023-04-15T06:56:51;17.45;;;11.32;;
32295;SDS011;18781;51.550;5.418;2023-04-15T06:59:16;18.58;;;10.52;;
32295;SDS011;18781;51.550;5.418;2023-04-15T07:01:42;15.93;;;10.18;;
32295;SDS011;18781;51.550;5.418;2023-04-15T07:04:08;19.60;;;10.35;;
32295;SDS011;18781;51.550;5.418;2023-04-15T07:06:35;15.95;;;10.35;;
32295;SDS011;18781;51.550;5.418;2023-04-15T07:09:00;18.90;;;10.63;;
32295;SDS011;18781;51.550;5.418;2023-04-15T07:11:27;17.20;;;10.63;;
32295;SDS011;18781;51.550;5.418;2023-04-15T07:13:52;16.98;;;11.57;;
32295;SDS011;18781;51.550;5.418;2023-04-15T07:16:18;18.40;;;10.95;;
32295;SDS011;18781;51.550;5.418;2023-04-15T07:18:43;17.58;;;11.35;;
32295;SDS011;18781;51.550;5.418;2023-04-15T07:21:09;16.85;;;11.95;;
32295;SDS011;18781;51.550;5.418;2023-04-15T07:23:35;15.63;;;11.50;;
32295;SDS011;18781;51.550;5.418;2023-04-15T07:26:01;22.17;;;11.77;;
32295;SDS011;18781;51.550;5.418;2023-04-15T07:28:27;16.08;;;10.88;;
32295;SDS011;18781;51.550;5.418;2023-04-15T07:30:52;15.55;;;10.98;;
32295;SDS011;18781;51.550;5.418;2023-04-15T07:33:19;17.48;;;11.35;;
32295;SDS011;18781;51.550;5.418;2023-04-15T07:35:45;17.58;;;10.90;;
32295;SDS011;18781;51.550;5.418;2023-04-15T07:38:11;21.60;;;10.93;;
32295;SDS011;18781;51.550;5.418;2023-04-15T07:40:37;17.95;;;10.90;;
32295;SDS011;18781;51.550;5.418;2023-04-15T07:43:03;15.65;;;10.65;;
32295;SDS011;18781;51.550;5.418;2023-04-15T07:45:30;13.55;;;9.60;;
32295;SDS011;18781;51.550;5.418;2023-04-15T07:47:56;15.25;;;9.88;;
32295;SDS011;18781;51.550;5.418;2023-04-15T07:50:21;15.45;;;8.75;;
32295;SDS011;18781;51.550;5.418;2023-04-15T07:52:48;14.68;;;9.60;;
32295;SDS011;18781;51.550;5.418;2023-04-15T07:55:15;12.98;;;8.90;;
32295;SDS011;18781;51.550;5.418;2023-04-15T07:57:43;16.03;;;10.20;;
32295;SDS011;18781;51.550;5.418;2023-04-15T08:00:09;14.10;;;9.88;;
32295;SDS011;18781;51.550;5.418;2023-04-15T08:02:35;16.58;;;9.32;;
32295;SDS011;18781;51.550;5.418;2023-04-15T08:05:01;14.55;;;9.70;;
32295;SDS011;18781;51.550;5.418;2023-04-15T08:07:28;15.25;;;9.63;;
32295;SDS011;18781;51.550;5.418;2023-04-15T08:09:54;12.43;;;8.70;;
32295;SDS011;18781;51.550;5.418;2023-04-15T08:12:19;13.23;;;8.82;;
32295;SDS011;18781;51.550;5.418;2023-04-15T08:14:45;14.13;;;8.35;;
32295;SDS011;18781;51.550;5.418;2023-04-15T08:17:11;12.65;;;8.57;;
32295;SDS011;18781;51.550;5.418;2023-04-15T08:19:37;13.88;;;8.30;;
32295;SDS011;18781;51.550;5.418;2023-04-15T08:22:02;13.45;;;8.43;;
32295;SDS011;18781;51.550;5.418;2023-04-15T08:24:28;11.32;;;8.40;;
32295;SDS011;18781;51.550;5.418;2023-04-15T08:26:55;12.13;;;8.65;;
32295;SDS011;18781;51.550;5.418;2023-04-15T08:29:21;12.90;;;8.20;;
32295;SDS011;18781;51.550;5.418;2023-04-15T08:31:47;13.80;;;8.90;;
32295;SDS011;18781;51.550;5.418;2023-04-15T08:34:12;13.43;;;8.50;;
32295;SDS011;18781;51.550;5.418;2023-04-15T08:36:39;13.30;;;8.35;;
32295;SDS011;18781;51.550;5.418;2023-04-15T08:39:04;13.82;;;8.60;;
32295;SDS011;18781;51.550;5.418;2023-04-15T08:41:37;14.88;;;8.15;;
32295;SDS011;18781;51.550;5.418;2023-04-15T08:44:05;12.07;;;7.10;;
32295;SDS011;18781;51.550;5.418;2023-04-15T08:46:31;10.43;;;6.70;;
32295;SDS011;18781;51.550;5.418;2023-04-15T08:48:59;9.47;;;6.27;;
32295;SDS011;18781;51.550;5.418;2023-04-15T08:51:28;10.45;;;6.82;;
32295;SDS011;18781;51.550;5.418;2023-04-15T08:53:54;10.10;;;5.82;;
32295;SDS011;18781;51.550;5.418;2023-04-15T08:56:22;12.07;;;6.38;;
32295;SDS011;18781;51.550;5.418;2023-04-15T08:58:50;7.93;;;5.18;;
32295;SDS011;18781;51.550;5.418;2023-04-15T09:01:16;9.98;;;5.30;;
32295;SDS011;18781;51.550;5.418;2023-04-15T09:03:42;10.32;;;5.75;;
32295;SDS011;18781;51.550;5.418;2023-04-15T09:06:08;9.52;;;5.90;;
32295;SDS011;18781;51.550;5.418;2023-04-15T09:08:34;11.98;;;5.45;;
32295;SDS011;18781;51.550;5.418;2023-04-15T09:11:00;10.00;;;6.35;;
32295;SDS011;18781;51.550;5.418;2023-04-15T09:13:27;9.52;;;5.72;;
32295;SDS011;18781;51.550;5.418;2023-04-15T09:15:53;11.82;;;6.28;;
32295;SDS011;18781;51.550;5.418;2023-04-15T09:18:25;14.57;;;6.88;;
32295;SDS011;18781;51.550;5.418;2023-04-15T09:20:53;10.05;;;6.57;;
32295;SDS011;18781;51.550;5.418;2023-04-15T09:23:19;9.23;;;6.28;;
32295;SDS011;18781;51.550;5.418;2023-04-15T09:25:44;10.63;;;5.97;;
32295;SDS011;18781;51.550;5.418;2023-04-15T09:28:10;9.70;;;5.10;;
32295;SDS011;18781;51.550;5.418;2023-04-15T09:30:36;8.32;;;4.88;;
32295;SDS011;18781;51.550;5.418;2023-04-15T09:33:02;9.52;;;5.55;;
32295;SDS011;18781;51.550;5.418;2023-04-15T09:35:32;9.45;;;6.22;;
32295;SDS011;18781;51.550;5.418;2023-04-15T09:38:03;10.65;;;6.28;;
32295;SDS011;18781;51.550;5.418;2023-04-15T09:40:38;10.07;;;5.85;;
32295;SDS011;18781;51.550;5.418;2023-04-15T09:43:05;12.60;;;4.35;;
32295;SDS011;18781;51.550;5.418;2023-04-15T09:45:32;13.68;;;4.65;;
32295;SDS011;18781;51.550;5.418;2023-04-15T09:50:43;6.65;;;4.80;;
32295;SDS011;18781;51.550;5.418;2023-04-15T09:53:09;6.30;;;5.00;;
32295;SDS011;18781;51.550;5.418;2023-04-15T09:55:37;16.38;;;5.25;;
32295;SDS011;18781;51.550;5.418;2023-04-15T09:58:07;7.93;;;4.85;;
32295;SDS011;18781;51.550;5.418;2023-04-15T10:00:34;9.95;;;5.47;;
32295;SDS011;18781;51.550;5.418;2023-04-15T10:03:01;8.55;;;4.97;;
32295;SDS011;18781;51.550;5.418;2023-04-15T10:05:29;13.55;;;5.25;;
32295;SDS011;18781;51.550;5.418;2023-04-15T10:07:55;8.38;;;5.53;;
32295;SDS011;18781;51.550;5.418;2023-04-15T10:10:21;8.15;;;4.65;;
32295;SDS011;18781;51.550;5.418;2023-04-15T10:12:47;9.25;;;4.38;;
32295;SDS011;18781;51.550;5.418;2023-04-15T10:15:16;7.82;;;5.25;;
32295;SDS011;18781;51.550;5.418;2023-04-15T10:17:43;9.50;;;4.88;;
32295;SDS011;18781;51.550;5.418;2023-04-15T10:20:09;7.90;;;5.47;;
32295;SDS011;18781;51.550;5.418;2023-04-15T10:22:37;9.65;;;5.10;;
32295;SDS011;18781;51.550;5.418;2023-04-15T10:25:03;8.15;;;4.97;;
32295;SDS011;18781;51.550;5.418;2023-04-15T10:27:30;8.48;;;4.13;;
32295;SDS011;18781;51.550;5.418;2023-04-15T10:29:56;7.55;;;3.90;;
32295;SDS011;18781;51.550;5.418;2023-04-15T10:32:24;7.03;;;3.30;;
32295;SDS011;18781;51.550;5.418;2023-04-15T10:34:51;5.20;;;3.70;;
32295;SDS011;18781;51.550;5.418;2023-04-15T10:37:21;7.05;;;3.83;;
32295;SDS011;18781;51.550;5.418;2023-04-15T10:39:57;7.53;;;3.97;;
32295;SDS011;18781;51.550;5.418;2023-04-15T10:42:22;5.90;;;3.78;;
32295;SDS011;18781;51.550;5.418;2023-04-15T10:44:48;6.10;;;3.97;;
32295;SDS011;18781;51.550;5.418;2023-04-15T10:47:17;7.35;;;3.75;;
32295;SDS011;18781;51.550;5.418;2023-04-15T10:52:14;7.10;;;4.40;;
32295;SDS011;18781;51.550;5.418;2023-04-15T10:54:41;8.27;;;4.25;;
32295;SDS011;18781;51.550;5.418;2023-04-15T10:59:38;6.00;;;3.42;;
32295;SDS011;18781;51.550;5.418;2023-04-15T11:02:37;4.07;;;3.20;;
32295;SDS011;18781;51.550;5.418;2023-04-15T11:05:06;6.70;;;3.30;;
32295;SDS011;18781;51.550;5.418;2023-04-15T11:12:37;6.20;;;3.75;;
32295;SDS011;18781;51.550;5.418;2023-04-15T11:17:51;7.78;;;3.97;;
32295;SDS011;18781;51.550;5.418;2023-04-15T11:20:16;7.55;;;3.80;;
32295;SDS011;18781;51.550;5.418;2023-04-15T11:22:46;4.95;;;3.72;;
32295;SDS011;18781;51.550;5.418;2023-04-15T11:25:22;8.70;;;4.18;;
32295;SDS011;18781;51.550;5.418;2023-04-15T11:27:49;5.70;;;3.65;;
32295;SDS011;18781;51.550;5.418;2023-04-15T11:30:18;8.27;;;4.00;;
32295;SDS011;18781;51.550;5.418;2023-04-15T11:32:46;7.60;;;3.95;;
32295;SDS011;18781;51.550;5.418;2023-04-15T11:35:12;5.57;;;3.97;;
32295;SDS011;18781;51.550;5.418;2023-04-15T11:37:38;3.78;;;3.38;;
32295;SDS011;18781;51.550;5.418;2023-04-15T11:40:03;4.50;;;3.17;;
32295;SDS011;18781;51.550;5.418;2023-04-15T11:42:30;4.38;;;3.20;;
32295;SDS011;18781;51.550;5.418;2023-04-15T11:45:08;4.68;;;3.08;;
32295;SDS011;18781;51.550;5.418;2023-04-15T11:47:35;6.30;;;3.35;;
32295;SDS011;18781;51.550;5.418;2023-04-15T11:50:17;7.28;;;4.00;;
32295;SDS011;18781;51.550;5.418;2023-04-15T11:52:56;6.72;;;4.10;;
32295;SDS011;18781;51.550;5.418;2023-04-15T11:55:24;9.73;;;4.05;;
32295;SDS011;18781;51.550;5.418;2023-04-15T11:58:04;6.80;;;3.63;;
32295;SDS011;18781;51.550;5.418;2023-04-15T12:00:32;4.95;;;3.40;;
32295;SDS011;18781;51.550;5.418;2023-04-15T12:11:40;6.95;;;2.50;;
32295;SDS011;18781;51.550;5.418;2023-04-15T12:14:22;6.00;;;2.92;;
32295;SDS011;18781;51.550;5.418;2023-04-15T12:16:51;3.92;;;2.97;;
32295;SDS011;18781;51.550;5.418;2023-04-15T12:19:25;5.35;;;3.20;;
32295;SDS011;18781;51.550;5.418;2023-04-15T12:22:00;6.55;;;3.28;;
32295;SDS011;18781;51.550;5.418;2023-04-15T12:24:28;9.07;;;3.13;;
32295;SDS011;18781;51.550;5.418;2023-04-15T12:26:56;5.82;;;3.50;;
32295;SDS011;18781;51.550;5.418;2023-04-15T12:29:26;5.82;;;3.65;;
32295;SDS011;18781;51.550;5.418;2023-04-15T12:31:54;6.05;;;3.50;;
32295;SDS011;18781;51.550;5.418;2023-04-15T12:34:29;9.77;;;3.35;;
32295;SDS011;18781;51.550;5.418;2023-04-15T12:37:00;4.95;;;2.90;;
32295;SDS011;18781;51.550;5.418;2023-04-15T12:39:30;5.10;;;3.38;;
32295;SDS011;18781;51.550;5.418;2023-04-15T12:41:58;7.88;;;3.50;;
32295;SDS011;18781;51.550;5.418;2023-04-15T12:44:25;7.18;;;3.17;;
32295;SDS011;18781;51.550;5.418;2023-04-15T12:46:51;5.25;;;3.00;;
32295;SDS011;18781;51.550;5.418;2023-04-15T12:49:18;4.90;;;3.40;;
32295;SDS011;18781;51.550;5.418;2023-04-15T12:51:45;4.38;;;3.45;;
32295;SDS011;18781;51.550;5.418;2023-04-15T12:54:17;6.10;;;3.17;;
32295;SDS011;18781;51.550;5.418;2023-04-15T12:56:43;7.68;;;3.67;;
32295;SDS011;18781;51.550;5.418;2023-04-15T12:59:10;6.47;;;3.13;;
32295;SDS011;18781;51.550;5.418;2023-04-15T13:01:36;6.43;;;3.20;;
32295;SDS011;18781;51.550;5.418;2023-04-15T13:04:02;4.80;;;2.95;;
32295;SDS011;18781;51.550;5.418;2023-04-15T13:06:28;2.92;;;2.22;;
32295;SDS011;18781;51.550;5.418;2023-04-15T13:08:54;4.35;;;2.55;;
32295;SDS011;18781;51.550;5.418;2023-04-15T13:11:21;4.50;;;3.05;;
32295;SDS011;18781;51.550;5.418;2023-04-15T13:13:46;4.13;;;2.83;;
32295;SDS011;18781;51.550;5.418;2023-04-15T13:16:12;5.18;;;2.50;;
32295;SDS011;18781;51.550;5.418;2023-04-15T13:18:38;3.30;;;2.35;;
32295;SDS011;18781;51.550;5.418;2023-04-15T13:21:03;7.25;;;2.75;;
32295;SDS011;18781;51.550;5.418;2023-04-15T13:23:31;4.05;;;2.63;;
32295;SDS011;18781;51.550;5.418;2023-04-15T13:25:57;5.20;;;2.20;;
32295;SDS011;18781;51.550;5.418;2023-04-15T13:28:22;5.32;;;2.70;;
32295;SDS011;18781;51.550;5.418;2023-04-15T13:30:48;4.75;;;2.25;;
32295;SDS011;18781;51.550;5.418;2023-04-15T13:33:15;7.38;;;2.70;;
32295;SDS011;18781;51.550;5.418;2023-04-15T13:35:41;5.28;;;2.03;;
32295;SDS011;18781;51.550;5.418;2023-04-15T13:38:07;4.93;;;2.55;;
32295;SDS011;18781;51.550;5.418;2023-04-15T13:40:32;4.65;;;2.70;;
32295;SDS011;18781;51.550;5.418;2023-04-15T13:42:58;3.90;;;2.40;;
32295;SDS011;18781;51.550;5.418;2023-04-15T13:45:24;9.43;;;2.72;;
32295;SDS011;18781;51.550;5.418;2023-04-15T13:47:50;9.18;;;2.70;;
32295;SDS011;18781;51.550;5.418;2023-04-15T13:50:16;5.07;;;2.47;;
32295;SDS011;18781;51.550;5.418;2023-04-15T13:52:41;3.72;;;2.35;;
32295;SDS011;18781;51.550;5.418;2023-04-15T13:55:07;8.07;;;2.20;;
32295;SDS011;18781;51.550;5.418;2023-04-15T13:57:33;3.05;;;2.10;;
32295;SDS011;18781;51.550;5.418;2023-04-15T13:59:58;4.32;;;2.35;;
32295;SDS011;18781;51.550;5.418;2023-04-15T14:02:24;5.60;;;2.25;;
32295;SDS011;18781;51.550;5.418;2023-04-15T14:04:50;4.63;;;2.60;;
32295;SDS011;18781;51.550;5.418;2023-04-15T14:07:15;5.03;;;2.40;;
32295;SDS011;18781;51.550;5.418;2023-04-15T14:09:42;4.38;;;2.35;;
32295;SDS011;18781;51.550;5.418;2023-04-15T14:12:08;4.47;;;1.88;;
32295;SDS011;18781;51.550;5.418;2023-04-15T14:14:35;4.85;;;1.80;;
32295;SDS011;18781;51.550;5.418;2023-04-15T14:17:01;3.80;;;1.98;;
32295;SDS011;18781;51.550;5.418;2023-04-15T14:19:28;3.28;;;1.90;;
32295;SDS011;18781;51.550;5.418;2023-04-15T14:21:55;4.35;;;1.65;;
32295;SDS011;18781;51.550;5.418;2023-04-15T14:24:20;2.70;;;1.55;;
32295;SDS011;18781;51.550;5.418;2023-04-15T14:26:46;4.50;;;1.88;;
32295;SDS011;18781;51.550;5.418;2023-04-15T14:29:12;4.63;;;1.92;;
32295;SDS011;18781;51.550;5.418;2023-04-15T14:31:37;4.28;;;1.67;;
32295;SDS011;18781;51.550;5.418;2023-04-15T14:34:03;5.82;;;1.88;;
32295;SDS011;18781;51.550;5.418;2023-04-15T14:36:29;3.10;;;1.77;;
32295;SDS011;18781;51.550;5.418;2023-04-15T14:38:56;5.40;;;1.90;;
32295;SDS011;18781;51.550;5.418;2023-04-15T14:41:21;5.50;;;1.63;;
32295;SDS011;18781;51.550;5.418;2023-04-15T14:43:48;4.30;;;1.88;;
32295;SDS011;18781;51.550;5.418;2023-04-15T14:46:13;2.35;;;1.48;;
32295;SDS011;18781;51.550;5.418;2023-04-15T14:48:39;2.35;;;1.42;;
32295;SDS011;18781;51.550;5.418;2023-04-15T14:51:05;4.40;;;1.77;;
32295;SDS011;18781;51.550;5.418;2023-04-15T14:53:31;3.67;;;1.30;;
32295;SDS011;18781;51.550;5.418;2023-04-15T14:55:56;2.85;;;1.60;;